createdAt,value
2022-11-27T00:02:08.860Z,0.10
2022-11-27T00:04:35.527Z,0.20
2022-11-27T00:07:02.165Z,0.20
2022-11-27T00:09:28.963Z,-0.10
2022-11-27T00:11:55.559Z,-0.50
2022-11-27T00:14:22.190Z,-0.30
2022-11-27T00:16:48.809Z,-0.40
2022-11-27T00:19:15.396Z,-0.70
2022-11-27T00:21:42.086Z,-0.70
2022-11-27T00:24:09.086Z,-0.70
2022-11-27T00:26:38.056Z,-0.70
2022-11-27T00:29:05.607Z,-0.90
2022-11-27T00:31:33.187Z,-0.70
2022-11-27T00:34:01.594Z,-0.30
2022-11-27T00:36:28.987Z,-0.30
2022-11-27T00:38:55.659Z,-0.10
2022-11-27T00:41:26.885Z,-0.20
2022-11-27T00:43:54.075Z,-0.50
2022-11-27T00:46:26.835Z,-0.70
2022-11-27T00:48:55.581Z,-0.60
2022-11-27T00:51:23.066Z,-0.50
2022-11-27T00:53:49.735Z,-0.40
2022-11-27T00:56:17.952Z,-0.40
2022-11-27T00:58:44.818Z,-0.60
2022-11-27T01:01:18.841Z,-0.90
2022-11-27T01:03:46.190Z,-1.00
2022-11-27T01:06:13.276Z,-0.80
2022-11-27T01:08:40.324Z,-0.70
2022-11-27T01:11:06.962Z,-0.60
2022-11-27T01:13:36.294Z,-0.50
2022-11-27T01:16:02.961Z,-0.30
2022-11-27T01:18:29.933Z,-0.30
2022-11-27T01:20:56.542Z,-0.20
2022-11-27T01:23:23.410Z,-0.20
2022-11-27T01:25:50.061Z,-0.10
2022-11-27T01:28:17.129Z,-0.20
2022-11-27T01:30:43.724Z,-0.20
2022-11-27T01:33:10.347Z,-0.30
2022-11-27T01:35:36.973Z,-0.20
2022-11-27T01:38:04.018Z,-0.10
2022-11-27T01:40:30.636Z,-0.20
2022-11-27T01:42:57.242Z,-0.30
2022-11-27T01:45:23.867Z,-0.40
2022-11-27T01:47:56.365Z,-0.50
2022-11-27T01:50:28.942Z,-0.50
2022-11-27T01:52:57.888Z,-0.50
2022-11-27T01:55:27.619Z,-0.40
2022-11-27T01:58:03.650Z,-0.80
2022-11-27T02:00:30.517Z,-1.00
2022-11-27T02:02:57.252Z,-1.00
2022-11-27T02:05:25.099Z,-1.00
2022-11-27T02:07:52.399Z,-1.30
2022-11-27T02:10:19.350Z,-1.50
2022-11-27T02:12:51.781Z,-1.00
2022-11-27T02:15:21.497Z,-0.80
2022-11-27T02:17:51.088Z,-0.80
2022-11-27T02:20:26.872Z,-1.20
2022-11-27T02:23:12.350Z,-1.10
2022-11-27T02:25:50.512Z,-0.80
2022-11-27T02:28:23.546Z,-0.50
2022-11-27T02:30:55.671Z,-0.50
2022-11-27T02:33:22.614Z,-0.60
2022-11-27T02:35:55.885Z,-0.40
2022-11-27T02:38:28.218Z,-0.40
2022-11-27T02:40:57.022Z,-0.40
2022-11-27T02:43:50.099Z,-0.70
2022-11-27T02:46:17.552Z,-0.50
2022-11-27T02:48:47.210Z,-0.70
2022-11-27T02:51:14.416Z,-0.70
2022-11-27T02:54:07.368Z,-0.70
2022-11-27T02:56:34.666Z,-0.80
2022-11-27T02:59:02.658Z,-1.00
2022-11-27T03:01:32.285Z,-1.20
2022-11-27T03:04:00.005Z,-1.20
2022-11-27T03:06:51.033Z,-1.20
2022-11-27T03:09:20.836Z,-1.40
2022-11-27T03:11:47.451Z,-1.30
2022-11-27T03:14:14.814Z,-1.10
2022-11-27T03:17:02.511Z,-1.00
2022-11-27T03:19:29.103Z,-0.70
2022-11-27T03:21:57.175Z,-0.40
2022-11-27T03:24:24.592Z,-0.60
2022-11-27T03:26:51.342Z,-1.00
2022-11-27T03:29:20.306Z,-1.10
2022-11-27T03:31:47.830Z,-0.90
2022-11-27T03:34:16.254Z,-1.00
2022-11-27T03:36:42.894Z,-0.70
2022-11-27T03:39:09.607Z,-0.60
2022-11-27T03:41:50.662Z,-0.90
2022-11-27T03:44:22.678Z,-1.20
2022-11-27T03:47:12.578Z,-1.40
2022-11-27T03:49:51.424Z,-1.50
2022-11-27T03:52:21.060Z,-1.40
2022-11-27T03:55:00.299Z,-1.50
2022-11-27T03:57:32.930Z,-1.70
2022-11-27T04:00:02.065Z,-1.80
2022-11-27T04:02:40.905Z,-1.70
2022-11-27T04:05:07.761Z,-1.80
2022-11-27T04:07:34.422Z,-2.00
2022-11-27T04:10:01.050Z,-2.00
2022-11-27T04:12:27.647Z,-1.50
2022-11-27T04:14:54.360Z,-1.70
2022-11-27T04:17:20.992Z,-1.80
2022-11-27T04:19:47.618Z,-1.90
2022-11-27T04:22:14.330Z,-1.80
2022-11-27T04:24:41.097Z,-2.00
2022-11-27T04:27:07.873Z,-2.00
2022-11-27T04:29:36.437Z,-1.80
2022-11-27T04:32:03.517Z,-1.50
2022-11-27T04:34:30.139Z,-1.40
2022-11-27T04:36:56.751Z,-1.20
2022-11-27T04:39:23.361Z,-1.00
2022-11-27T04:41:50.061Z,-1.20
2022-11-27T04:44:16.819Z,-1.60
2022-11-27T04:46:43.673Z,-1.80
2022-11-27T04:49:10.833Z,-1.40
2022-11-27T04:51:37.424Z,-1.50
2022-11-27T04:54:04.158Z,-1.50
2022-11-27T04:56:30.814Z,-1.90
2022-11-27T04:58:57.429Z,-1.70
2022-11-27T05:01:24.146Z,-1.30
2022-11-27T05:03:50.820Z,-1.70
2022-11-27T05:06:17.452Z,-1.90
2022-11-27T05:08:44.051Z,-1.80
2022-11-27T05:11:12.555Z,-1.60
2022-11-27T05:13:39.566Z,-1.80
2022-11-27T05:16:06.334Z,-1.70
2022-11-27T05:18:33.015Z,-1.50
2022-11-27T05:21:00.978Z,-1.60
2022-11-27T05:23:27.667Z,-1.50
2022-11-27T05:25:54.358Z,-1.60
2022-11-27T05:28:26.380Z,-1.50
2022-11-27T05:30:54.047Z,-1.50
2022-11-27T05:33:20.869Z,-1.40
2022-11-27T05:35:47.454Z,-1.40
2022-11-27T05:38:39.244Z,-1.40
2022-11-27T05:41:05.908Z,-1.30
2022-11-27T05:43:32.525Z,-1.60
2022-11-27T05:45:59.326Z,-1.60
2022-11-27T05:48:25.934Z,-1.40
2022-11-27T05:50:52.504Z,-1.30
2022-11-27T05:53:19.110Z,-1.00
2022-11-27T05:55:45.707Z,-1.10
2022-11-27T05:58:12.377Z,-1.80
2022-11-27T06:00:39.116Z,-2.00
2022-11-27T06:03:05.830Z,-2.00
2022-11-27T06:05:32.584Z,-2.00
2022-11-27T06:07:59.394Z,-1.70
2022-11-27T06:10:26.036Z,-1.60
2022-11-27T06:12:52.648Z,-1.60
2022-11-27T06:15:19.239Z,-1.90
2022-11-27T06:17:45.864Z,-2.00
2022-11-27T06:20:12.506Z,-1.80
2022-11-27T06:22:39.110Z,-1.40
2022-11-27T06:25:05.915Z,-1.50
2022-11-27T06:27:33.510Z,-1.20
2022-11-27T06:30:00.110Z,-1.40
2022-11-27T06:32:26.815Z,-1.40
2022-11-27T06:34:53.444Z,-0.70
2022-11-27T06:37:20.049Z,-0.80
2022-11-27T06:39:48.159Z,-1.00
2022-11-27T06:42:14.895Z,-1.30
2022-11-27T06:44:41.914Z,-1.30
2022-11-27T06:47:08.708Z,-1.40
2022-11-27T06:49:35.301Z,-1.40
2022-11-27T06:52:02.015Z,-1.40
2022-11-27T06:54:28.628Z,-1.30
2022-11-27T06:56:55.248Z,-1.60
2022-11-27T06:59:21.895Z,-2.00
2022-11-27T07:01:48.557Z,-2.10
2022-11-27T07:04:15.471Z,-2.00
2022-11-27T07:06:42.531Z,-1.90
2022-11-27T07:09:09.979Z,-1.70
2022-11-27T07:11:38.143Z,-1.80
2022-11-27T07:14:05.282Z,-1.70
2022-11-27T07:16:33.672Z,-1.20
2022-11-27T07:19:02.072Z,-1.30
2022-11-27T07:21:28.907Z,-1.10
2022-11-27T07:23:56.578Z,-1.20
2022-11-27T07:26:24.601Z,-1.10
2022-11-27T07:28:51.636Z,-1.10
2022-11-27T07:31:22.346Z,-0.90
2022-11-27T07:33:49.045Z,-0.70
2022-11-27T07:36:16.735Z,-0.90
2022-11-27T07:38:59.116Z,-0.80
2022-11-27T07:41:30.515Z,-0.90
2022-11-27T07:44:00.285Z,-0.80
2022-11-27T07:46:27.315Z,-0.70
2022-11-27T07:48:53.964Z,-0.80
2022-11-27T07:51:21.417Z,-0.50
2022-11-27T07:53:48.769Z,-0.40
2022-11-27T07:56:15.804Z,-0.50
2022-11-27T07:58:42.679Z,-0.60
2022-11-27T08:01:10.581Z,-0.60
2022-11-27T08:03:37.763Z,-0.50
2022-11-27T08:06:04.886Z,-0.50
2022-11-27T08:08:32.320Z,-0.40
2022-11-27T08:10:58.913Z,-0.20
2022-11-27T08:13:25.598Z,-0.30
2022-11-27T08:15:52.198Z,-0.30
2022-11-27T08:18:18.819Z,-0.10
2022-11-27T08:20:45.436Z,-0.10
2022-11-27T08:23:12.070Z,0.10
2022-11-27T08:25:38.820Z,0.00
2022-11-27T08:28:05.459Z,0.00
2022-11-27T08:30:32.086Z,-0.10
2022-11-27T08:32:58.688Z,0.00
2022-11-27T08:35:25.293Z,0.20
2022-11-27T08:37:52.252Z,0.10
2022-11-27T08:40:18.891Z,0.10
2022-11-27T08:42:45.481Z,0.20
2022-11-27T08:45:12.160Z,0.20
2022-11-27T08:47:38.823Z,0.30
2022-11-27T08:50:05.728Z,0.40
2022-11-27T08:52:32.354Z,0.50
2022-11-27T08:54:59.151Z,0.60
2022-11-27T08:57:25.796Z,0.60
2022-11-27T08:59:52.497Z,0.70
2022-11-27T09:02:19.099Z,0.60
2022-11-27T09:04:45.767Z,0.60
2022-11-27T09:07:14.943Z,0.70
2022-11-27T09:09:41.664Z,0.70
2022-11-27T09:12:08.305Z,1.00
2022-11-27T09:14:34.939Z,1.00
2022-11-27T09:17:01.928Z,1.00
2022-11-27T09:19:28.740Z,1.00
2022-11-27T09:21:55.376Z,1.20
2022-11-27T09:24:22.083Z,1.20
2022-11-27T09:26:48.694Z,1.20
2022-11-27T09:29:15.305Z,1.20
2022-11-27T09:31:41.958Z,1.30
2022-11-27T09:34:08.738Z,1.40
2022-11-27T09:36:35.426Z,1.30
2022-11-27T09:39:03.517Z,1.40
2022-11-27T09:41:43.715Z,1.40
2022-11-27T09:44:22.031Z,1.30
2022-11-27T09:46:49.395Z,1.40
2022-11-27T09:49:19.886Z,1.60
2022-11-27T09:52:00.153Z,1.60
2022-11-27T09:54:30.393Z,1.80
2022-11-27T09:56:57.832Z,2.00
2022-11-27T09:59:39.182Z,1.70
2022-11-27T10:02:15.463Z,1.80
2022-11-27T10:05:05.677Z,1.90
2022-11-27T10:07:34.567Z,2.00
2022-11-27T10:10:08.628Z,2.10
2022-11-27T10:12:48.026Z,2.20
2022-11-27T10:15:14.646Z,2.70
2022-11-27T10:17:56.679Z,3.30
2022-11-27T10:20:37.432Z,3.40
2022-11-27T10:23:14.863Z,3.50
2022-11-27T10:25:52.313Z,3.70
2022-11-27T10:28:28.887Z,3.80
2022-11-27T10:31:02.596Z,4.10
2022-11-27T10:33:44.604Z,4.10
2022-11-27T10:36:15.167Z,4.20
2022-11-27T10:38:42.966Z,4.60
2022-11-27T10:41:48.083Z,4.70
2022-11-27T10:44:21.306Z,4.50
2022-11-27T10:46:48.921Z,4.40
2022-11-27T10:49:15.550Z,4.50
2022-11-27T10:51:42.214Z,4.70
2022-11-27T10:54:12.107Z,4.10
2022-11-27T10:56:54.565Z,4.20
2022-11-27T10:59:23.871Z,4.30
2022-11-27T11:01:53.251Z,4.80
2022-11-27T11:04:41.750Z,4.90
2022-11-27T11:07:24.204Z,4.60
2022-11-27T11:09:51.724Z,4.30
2022-11-27T11:12:21.024Z,4.60
2022-11-27T11:14:55.111Z,4.70
2022-11-27T11:17:26.442Z,4.50
2022-11-27T11:19:53.528Z,4.40
2022-11-27T11:22:20.153Z,4.50
2022-11-27T11:24:49.045Z,4.80
2022-11-27T11:27:15.750Z,4.80
2022-11-27T11:29:42.520Z,4.50
2022-11-27T11:32:29.584Z,4.40
2022-11-27T11:35:04.761Z,4.70
2022-11-27T11:37:31.382Z,4.50
2022-11-27T11:40:16.086Z,4.70
2022-11-27T11:43:00.252Z,4.90
2022-11-27T11:45:32.269Z,4.90
2022-11-27T11:48:04.191Z,5.00
2022-11-27T11:50:30.795Z,5.00
2022-11-27T11:53:12.768Z,4.70
2022-11-27T11:55:42.510Z,4.90
2022-11-27T11:58:10.972Z,4.90
2022-11-27T12:00:58.492Z,5.00
2022-11-27T12:03:50.444Z,5.10
2022-11-27T12:06:23.136Z,5.20
2022-11-27T12:09:15.531Z,5.10
2022-11-27T12:12:00.962Z,4.70
2022-11-27T12:14:41.927Z,4.50
2022-11-27T12:17:17.791Z,4.20
2022-11-27T12:19:55.206Z,4.20
2022-11-27T12:22:38.016Z,4.10
2022-11-27T12:25:23.718Z,4.10
2022-11-27T12:27:56.396Z,3.90
2022-11-27T12:30:24.191Z,3.80
2022-11-27T12:33:01.465Z,3.80
2022-11-27T12:35:37.280Z,3.70
2022-11-27T12:38:31.155Z,3.70
2022-11-27T12:41:16.442Z,3.80
2022-11-27T12:43:45.532Z,3.90
2022-11-27T12:46:19.862Z,3.60
2022-11-27T12:48:50.206Z,3.40
2022-11-27T12:51:27.978Z,3.40
2022-11-27T12:54:06.622Z,3.60
2022-11-27T12:56:33.292Z,3.50
2022-11-27T12:59:13.255Z,3.60
2022-11-27T13:01:42.646Z,3.60
2022-11-27T13:04:18.221Z,3.30
2022-11-27T13:07:05.112Z,3.00
2022-11-27T13:09:42.040Z,3.10
2022-11-27T13:12:10.546Z,3.20
2022-11-27T13:14:38.499Z,3.00
2022-11-27T13:17:08.792Z,3.10
2022-11-27T13:19:46.802Z,3.10
2022-11-27T13:22:15.863Z,3.20
2022-11-27T13:24:43.063Z,3.00
2022-11-27T13:27:12.886Z,3.00
2022-11-27T13:29:43.300Z,3.10
2022-11-27T13:32:15.058Z,3.10
2022-11-27T13:34:43.785Z,3.10
2022-11-27T13:37:18.803Z,3.00
2022-11-27T13:39:45.467Z,3.30
2022-11-27T13:42:12.110Z,3.20
2022-11-27T13:44:41.567Z,3.20
2022-11-27T13:47:13.635Z,3.20
2022-11-27T13:49:40.346Z,3.20
2022-11-27T13:52:16.908Z,3.10
2022-11-27T13:55:03.866Z,3.10
2022-11-27T13:57:30.535Z,3.30
2022-11-27T14:00:01.463Z,3.40
2022-11-27T14:02:48.435Z,3.30
2022-11-27T14:05:16.519Z,3.10
2022-11-27T14:07:54.644Z,3.00
2022-11-27T14:10:23.185Z,3.10
2022-11-27T14:13:15.930Z,3.20
2022-11-27T14:15:42.592Z,3.30
2022-11-27T14:18:15.403Z,3.20
2022-11-27T14:20:47.048Z,3.20
2022-11-27T14:23:14.023Z,3.10
2022-11-27T14:25:41.226Z,3.10
2022-11-27T14:28:13.815Z,3.20
2022-11-27T14:30:40.630Z,3.20
2022-11-27T14:33:16.672Z,3.30
2022-11-27T14:35:47.631Z,3.20
2022-11-27T14:38:15.164Z,3.20
2022-11-27T14:40:42.626Z,3.20
2022-11-27T14:43:09.943Z,3.10
2022-11-27T14:45:37.487Z,3.10
2022-11-27T14:48:04.245Z,3.00
2022-11-27T14:50:30.890Z,2.90
2022-11-27T14:52:58.317Z,3.00
2022-11-27T14:55:28.896Z,3.00
2022-11-27T14:57:58.695Z,3.00
2022-11-27T15:00:32.146Z,2.80
2022-11-27T15:03:08.893Z,2.70
2022-11-27T15:05:37.203Z,2.50
2022-11-27T15:08:04.305Z,2.20
2022-11-27T15:10:38.910Z,2.00
2022-11-27T15:13:06.959Z,1.80
2022-11-27T15:15:38.723Z,1.90
2022-11-27T15:18:17.399Z,1.70
2022-11-27T15:20:45.013Z,1.70
2022-11-27T15:23:14.838Z,1.40
2022-11-27T15:25:42.662Z,1.20
2022-11-27T15:28:26.403Z,0.90
2022-11-27T15:30:53.614Z,0.90
2022-11-27T15:33:28.367Z,1.00
2022-11-27T15:36:13.364Z,1.10
2022-11-27T15:38:41.010Z,1.20
2022-11-27T15:41:18.707Z,1.20
2022-11-27T15:43:45.494Z,1.30
2022-11-27T15:46:13.733Z,1.40
2022-11-27T15:48:40.442Z,1.40
2022-11-27T15:51:07.100Z,1.10
2022-11-27T15:53:33.720Z,1.20
2022-11-27T15:56:00.516Z,1.00
2022-11-27T15:58:27.127Z,1.20
2022-11-27T16:00:53.899Z,1.20
2022-11-27T16:03:22.336Z,0.90
2022-11-27T16:05:49.004Z,0.90
2022-11-27T16:08:16.066Z,0.90
2022-11-27T16:10:42.920Z,0.80
2022-11-27T16:13:09.537Z,0.90
2022-11-27T16:15:36.181Z,0.90
2022-11-27T16:18:02.923Z,0.90
2022-11-27T16:20:29.617Z,0.80
2022-11-27T16:22:56.214Z,0.70
2022-11-27T16:25:22.836Z,0.70
2022-11-27T16:27:49.497Z,0.50
2022-11-27T16:30:16.296Z,0.60
2022-11-27T16:32:42.956Z,0.50
2022-11-27T16:35:09.585Z,0.60
2022-11-27T16:37:36.273Z,0.80
2022-11-27T16:40:03.333Z,0.70
2022-11-27T16:42:29.977Z,0.70
2022-11-27T16:44:57.227Z,0.50
2022-11-27T16:47:30.595Z,0.60
2022-11-27T16:50:00.574Z,0.60
2022-11-27T16:52:28.123Z,0.40
2022-11-27T16:54:55.553Z,0.60
2022-11-27T16:57:23.445Z,0.50
2022-11-27T16:59:50.812Z,0.60
2022-11-27T17:02:18.983Z,0.60
2022-11-27T17:04:45.806Z,0.60
2022-11-27T17:07:12.519Z,0.70
2022-11-27T17:09:42.035Z,0.60
2022-11-27T17:12:08.686Z,0.50
2022-11-27T17:14:36.855Z,0.50
2022-11-27T17:17:04.418Z,0.60
2022-11-27T17:19:31.699Z,0.60
2022-11-27T17:21:58.375Z,0.70
2022-11-27T17:24:26.141Z,0.70
2022-11-27T17:26:55.238Z,0.70
2022-11-27T17:29:32.212Z,0.70
2022-11-27T17:32:02.243Z,0.80
2022-11-27T17:34:28.962Z,0.70
2022-11-27T17:36:57.506Z,0.50
2022-11-27T17:39:24.186Z,0.70
2022-11-27T17:41:50.906Z,0.70
2022-11-27T17:44:17.512Z,0.70
2022-11-27T17:46:49.755Z,0.70
2022-11-27T17:49:16.761Z,0.60
2022-11-27T17:51:44.813Z,0.60
2022-11-27T17:54:13.175Z,0.70
2022-11-27T17:56:39.903Z,0.60
2022-11-27T17:59:08.296Z,0.60
2022-11-27T18:01:35.069Z,0.70
2022-11-27T18:04:04.299Z,0.50
2022-11-27T18:06:32.119Z,0.50
2022-11-27T18:08:59.419Z,0.70
2022-11-27T18:11:27.891Z,0.80
2022-11-27T18:13:57.186Z,0.80
2022-11-27T18:16:31.661Z,0.80
2022-11-27T18:18:59.007Z,0.90
2022-11-27T18:21:27.162Z,0.80
2022-11-27T18:24:21.954Z,0.80
2022-11-27T18:29:27.901Z,0.80
2022-11-27T18:31:54.883Z,0.80
2022-11-27T18:34:21.550Z,0.90
2022-11-27T18:36:48.162Z,0.80
2022-11-27T18:39:15.558Z,0.90
2022-11-27T18:41:42.259Z,0.90
2022-11-27T18:44:08.930Z,0.90
2022-11-27T18:46:35.807Z,1.00
2022-11-27T18:49:02.499Z,0.90
2022-11-27T18:51:29.098Z,0.80
2022-11-27T18:53:57.479Z,0.90
2022-11-27T18:56:28.531Z,0.90
2022-11-27T18:58:55.711Z,0.90
2022-11-27T19:01:26.774Z,0.80
2022-11-27T19:03:53.726Z,0.70
2022-11-27T19:06:21.165Z,0.70
2022-11-27T19:08:48.384Z,0.70
2022-11-27T19:11:16.691Z,0.80
2022-11-27T19:13:44.502Z,0.90
2022-11-27T19:16:21.577Z,0.80
2022-11-27T19:18:48.356Z,0.70
2022-11-27T19:21:17.001Z,0.80
2022-11-27T19:23:43.643Z,0.70
2022-11-27T19:26:11.404Z,0.90
2022-11-27T19:28:38.133Z,1.00
2022-11-27T19:31:05.487Z,1.00
2022-11-27T19:33:32.273Z,1.10
2022-11-27T19:35:59.644Z,1.00
2022-11-27T19:38:27.388Z,0.90
2022-11-27T19:40:54.957Z,1.20
2022-11-27T19:43:23.294Z,1.20
2022-11-27T19:45:50.274Z,1.10
2022-11-27T19:48:22.738Z,0.90
2022-11-27T19:50:51.688Z,1.00
2022-11-27T19:53:19.039Z,1.00
2022-11-27T19:55:52.207Z,1.10
2022-11-27T19:58:19.061Z,1.30
2022-11-27T20:00:47.044Z,1.00
2022-11-27T20:03:13.717Z,0.90
2022-11-27T20:05:40.491Z,1.00
2022-11-27T20:08:07.377Z,1.00
2022-11-27T20:10:34.689Z,1.00
2022-11-27T20:13:01.617Z,1.00
2022-11-27T20:15:28.918Z,0.90
2022-11-27T20:17:55.671Z,1.10
2022-11-27T20:20:22.534Z,0.80
2022-11-27T20:22:50.236Z,0.90
2022-11-27T20:25:20.177Z,0.90
2022-11-27T20:27:48.506Z,0.90
2022-11-27T20:30:15.210Z,1.00
2022-11-27T20:32:42.654Z,1.00
2022-11-27T20:35:09.472Z,1.00
2022-11-27T20:37:36.108Z,1.00
2022-11-27T20:40:03.711Z,0.90
2022-11-27T20:42:30.410Z,0.80
2022-11-27T20:44:57.115Z,0.80
2022-11-27T20:47:23.718Z,0.80
2022-11-27T20:49:50.866Z,0.90
2022-11-27T20:52:17.661Z,1.00
2022-11-27T20:54:44.271Z,0.80
2022-11-27T20:57:14.128Z,0.70
2022-11-27T20:59:41.674Z,0.60
2022-11-27T21:02:10.961Z,0.70
2022-11-27T21:04:38.114Z,0.60
2022-11-27T21:07:04.785Z,0.40
2022-11-27T21:09:31.420Z,0.50
2022-11-27T21:11:58.072Z,0.50
2022-11-27T21:14:26.208Z,0.70
2022-11-27T21:16:53.919Z,0.70
2022-11-27T21:19:27.764Z,0.60
2022-11-27T21:21:56.229Z,0.60
2022-11-27T21:24:24.347Z,0.70
2022-11-27T21:26:51.235Z,0.70
2022-11-27T21:29:17.901Z,0.70
2022-11-27T21:31:47.285Z,0.60
2022-11-27T21:34:15.294Z,0.60
2022-11-27T21:36:42.530Z,0.80
2022-11-27T21:39:11.296Z,0.60
2022-11-27T21:41:38.101Z,0.70
2022-11-27T21:44:05.355Z,0.80
2022-11-27T21:46:33.557Z,0.90
2022-11-27T21:49:03.804Z,0.90
2022-11-27T21:51:30.831Z,0.80
2022-11-27T21:53:58.134Z,0.70
2022-11-27T21:56:25.902Z,0.70
2022-11-27T21:58:53.210Z,0.80
2022-11-27T22:01:21.125Z,0.80
2022-11-27T22:03:50.082Z,0.80
2022-11-27T22:06:18.170Z,0.60
2022-11-27T22:08:45.922Z,0.70
2022-11-27T22:11:14.284Z,0.60
2022-11-27T22:13:43.944Z,0.70
2022-11-27T22:16:11.598Z,0.70
2022-11-27T22:18:38.527Z,0.70
2022-11-27T22:21:06.159Z,0.90
2022-11-27T22:23:32.861Z,0.80
2022-11-27T22:26:00.168Z,0.80
2022-11-27T22:28:27.229Z,0.80
2022-11-27T22:30:53.905Z,1.00
2022-11-27T22:33:20.834Z,0.90
2022-11-27T22:35:47.667Z,1.00
2022-11-27T22:38:14.393Z,0.90
2022-11-27T22:40:43.715Z,0.90
2022-11-27T22:43:10.589Z,0.80
2022-11-27T22:45:38.650Z,0.90
2022-11-27T22:48:05.676Z,0.80
2022-11-27T22:50:32.498Z,0.90
2022-11-27T22:52:59.802Z,1.00
2022-11-27T22:55:28.134Z,0.80
2022-11-27T22:57:54.759Z,0.80
2022-11-27T23:00:22.630Z,0.80
2022-11-27T23:02:49.391Z,0.70
2022-11-27T23:05:16.102Z,0.70
2022-11-27T23:07:42.885Z,0.70
2022-11-27T23:10:09.771Z,0.90
2022-11-27T23:12:36.426Z,1.00
2022-11-27T23:15:03.336Z,1.00
2022-11-27T23:17:29.948Z,0.80
2022-11-27T23:19:56.574Z,0.90
2022-11-27T23:22:23.215Z,0.80
2022-11-27T23:24:49.810Z,1.00
2022-11-27T23:27:16.436Z,1.10
2022-11-27T23:29:43.031Z,1.30
2022-11-27T23:32:09.711Z,1.30
2022-11-27T23:34:36.426Z,1.10
2022-11-27T23:37:03.046Z,0.90
2022-11-27T23:39:29.709Z,0.70
2022-11-27T23:41:56.312Z,0.70
2022-11-27T23:44:22.904Z,0.80
2022-11-27T23:46:49.499Z,0.80
2022-11-27T23:49:16.091Z,0.60
2022-11-27T23:51:42.711Z,0.60
2022-11-27T23:54:09.906Z,0.80
2022-11-27T23:56:37.172Z,0.90
2022-11-27T23:59:04.114Z,0.70
